createdAt,value
2023-05-21T00:00:13.318Z,4.70
2023-05-21T00:02:40.357Z,4.82
2023-05-21T00:05:08.137Z,4.53
2023-05-21T00:07:34.948Z,4.72
2023-05-21T00:10:01.762Z,4.82
2023-05-21T00:12:28.434Z,4.53
2023-05-21T00:14:57.822Z,4.70
2023-05-21T00:17:25.113Z,4.40
2023-05-21T00:19:52.229Z,4.40
2023-05-21T00:22:18.935Z,4.28
2023-05-21T00:24:45.854Z,4.65
2023-05-21T00:27:13.948Z,4.45
2023-05-21T00:29:44.260Z,4.60
2023-05-21T00:32:11.609Z,4.18
2023-05-21T00:34:39.862Z,4.05
2023-05-21T00:37:06.581Z,4.15
2023-05-21T00:39:33.405Z,4.80
2023-05-21T00:42:03.287Z,4.10
2023-05-21T00:44:30.219Z,4.40
2023-05-21T00:46:57.218Z,4.43
2023-05-21T00:49:24.046Z,4.20
2023-05-21T00:51:53.647Z,4.43
2023-05-21T00:54:20.990Z,4.07
2023-05-21T00:56:48.120Z,4.28
2023-05-21T00:59:18.435Z,3.95
2023-05-21T01:01:45.285Z,4.15
2023-05-21T01:04:12.908Z,3.88
2023-05-21T01:06:39.712Z,4.07
2023-05-21T01:09:06.955Z,4.25
2023-05-21T01:11:43.725Z,4.47
2023-05-21T01:14:14.720Z,4.40
2023-05-21T01:16:44.700Z,4.20
2023-05-21T01:19:15.799Z,4.13
2023-05-21T01:21:49.772Z,4.45
2023-05-21T01:24:19.975Z,4.00
2023-05-21T01:26:46.714Z,4.68
2023-05-21T01:29:14.283Z,4.22
2023-05-21T01:32:15.730Z,4.13
2023-05-21T01:34:50.520Z,4.22
2023-05-21T01:37:31.208Z,4.32
2023-05-21T01:40:08.692Z,4.25
2023-05-21T01:42:38.717Z,4.30
2023-05-21T01:45:07.745Z,4.50
2023-05-21T01:47:37.426Z,4.50
2023-05-21T01:50:06.035Z,4.25
2023-05-21T01:52:32.803Z,3.90
2023-05-21T01:54:59.799Z,4.10
2023-05-21T01:57:29.386Z,4.53
2023-05-21T01:59:58.999Z,4.63
2023-05-21T02:02:25.896Z,3.67
2023-05-21T02:04:52.689Z,4.18
2023-05-21T02:07:20.981Z,4.15
2023-05-21T02:09:50.941Z,4.03
2023-05-21T02:12:17.635Z,4.43
2023-05-21T02:14:46.984Z,4.93
2023-05-21T02:17:13.986Z,4.25
2023-05-21T02:19:43.480Z,4.20
2023-05-21T02:22:10.508Z,4.03
2023-05-21T02:24:37.295Z,4.60
2023-05-21T02:27:04.141Z,4.38
2023-05-21T02:29:31.167Z,4.85
2023-05-21T02:32:16.281Z,4.22
2023-05-21T02:34:46.055Z,4.00
2023-05-21T02:37:12.763Z,4.20
2023-05-21T02:39:40.879Z,4.50
2023-05-21T02:42:07.568Z,4.20
2023-05-21T02:44:34.407Z,4.13
2023-05-21T02:47:01.149Z,4.57
2023-05-21T02:49:31.155Z,4.78
2023-05-21T02:51:57.943Z,4.55
2023-05-21T02:54:26.652Z,4.47
2023-05-21T02:56:53.486Z,4.72
2023-05-21T02:59:20.178Z,4.70
2023-05-21T03:01:46.973Z,4.10
2023-05-21T03:04:16.865Z,4.45
2023-05-21T03:06:45.956Z,4.53
2023-05-21T03:09:12.780Z,4.47
2023-05-21T03:11:39.664Z,4.77
2023-05-21T03:14:06.455Z,3.88
2023-05-21T03:16:33.328Z,4.13
2023-05-21T03:19:00.610Z,4.70
2023-05-21T03:21:27.966Z,4.57
2023-05-21T03:23:54.729Z,4.50
2023-05-21T03:26:21.452Z,4.43
2023-05-21T03:28:53.355Z,4.55
2023-05-21T03:31:20.301Z,4.93
2023-05-21T03:33:47.037Z,5.20
2023-05-21T03:36:15.320Z,4.50
2023-05-21T03:38:45.200Z,4.82
2023-05-21T03:41:13.394Z,5.03
2023-05-21T03:43:40.326Z,5.18
2023-05-21T03:46:07.100Z,5.25
2023-05-21T03:48:34.272Z,4.60
2023-05-21T03:51:01.025Z,4.80
2023-05-21T03:53:27.850Z,5.10
2023-05-21T03:55:54.807Z,5.07
2023-05-21T03:58:24.924Z,4.95
2023-05-21T04:00:51.591Z,5.57
2023-05-21T04:03:18.960Z,5.47
2023-05-21T04:05:51.685Z,5.05
2023-05-21T04:08:18.411Z,4.70
2023-05-21T04:10:45.240Z,4.40
2023-05-21T04:13:16.643Z,4.40
2023-05-21T04:15:43.366Z,4.30
2023-05-21T04:18:10.336Z,5.03
2023-05-21T04:20:37.028Z,5.07
2023-05-21T04:23:03.789Z,4.43
2023-05-21T04:25:30.577Z,4.43
2023-05-21T04:27:59.979Z,4.32
2023-05-21T04:41:24.912Z,5.22
2023-05-21T04:43:51.656Z,5.83
2023-05-21T04:46:19.999Z,4.70
2023-05-21T04:48:46.793Z,4.90
2023-05-21T04:51:13.504Z,4.55
2023-05-21T04:53:40.223Z,4.80
2023-05-21T04:56:07.150Z,4.50
2023-05-21T04:58:36.418Z,5.00
2023-05-21T05:01:03.348Z,4.68
2023-05-21T05:03:30.441Z,4.55
2023-05-21T05:05:57.581Z,4.70
2023-05-21T05:08:24.216Z,4.57
2023-05-21T05:10:51.106Z,4.53
2023-05-21T05:13:20.921Z,4.50
2023-05-21T05:15:49.651Z,4.63
2023-05-21T05:18:16.911Z,4.90
2023-05-21T05:20:45.757Z,4.43
2023-05-21T05:23:17.074Z,4.43
2023-05-21T05:25:43.887Z,4.80
2023-05-21T05:28:10.606Z,4.85
2023-05-21T05:30:40.116Z,4.50
2023-05-21T05:33:08.532Z,4.47
2023-05-21T05:35:37.136Z,4.28
2023-05-21T05:38:05.097Z,4.55
2023-05-21T05:40:31.801Z,4.50
2023-05-21T05:43:01.437Z,4.40
2023-05-21T05:45:28.061Z,4.60
2023-05-21T05:47:57.592Z,4.05
2023-05-21T05:50:24.444Z,4.10
2023-05-21T05:52:51.252Z,3.88
2023-05-21T05:55:18.170Z,4.15
2023-05-21T05:57:45.606Z,4.17
2023-05-21T06:00:12.910Z,4.65
2023-05-21T06:02:40.250Z,4.50
2023-05-21T06:05:07.424Z,4.43
2023-05-21T06:07:34.217Z,4.43
2023-05-21T06:10:01.950Z,4.50
2023-05-21T06:12:28.600Z,4.40
2023-05-21T06:14:56.337Z,4.75
2023-05-21T06:17:23.220Z,4.60
2023-05-21T06:19:50.048Z,4.80
2023-05-21T06:22:16.973Z,4.30
2023-05-21T06:24:43.651Z,4.25
2023-05-21T06:27:13.703Z,5.10
2023-05-21T06:29:40.551Z,4.50
2023-05-21T06:32:08.757Z,4.78
2023-05-21T06:34:38.332Z,4.47
2023-05-21T06:37:05.238Z,4.63
2023-05-21T06:39:31.899Z,4.95
2023-05-21T06:42:01.880Z,4.70
2023-05-21T06:44:28.713Z,4.18
2023-05-21T06:46:56.180Z,4.47
2023-05-21T06:49:25.656Z,4.05
2023-05-21T06:51:52.533Z,4.20
2023-05-21T06:54:27.132Z,4.05
2023-05-21T06:56:56.721Z,3.95
2023-05-21T06:59:23.480Z,3.60
2023-05-21T07:01:50.481Z,3.75
2023-05-21T07:04:17.272Z,3.70
2023-05-21T07:06:44.035Z,3.80
2023-05-21T07:09:12.891Z,3.63
2023-05-21T07:11:39.687Z,3.87
2023-05-21T07:14:06.457Z,3.20
2023-05-21T07:16:33.238Z,3.15
2023-05-21T07:19:02.839Z,3.70
2023-05-21T07:21:29.883Z,3.38
2023-05-21T07:23:56.533Z,3.60
2023-05-21T07:26:26.347Z,3.40
2023-05-21T07:28:53.705Z,3.55
2023-05-21T07:31:24.779Z,3.58
2023-05-21T07:33:51.581Z,3.63
2023-05-21T07:36:18.642Z,3.63
2023-05-21T07:38:47.619Z,3.78
2023-05-21T07:41:15.072Z,3.70
2023-05-21T07:43:45.880Z,4.13
2023-05-21T07:46:13.670Z,3.90
2023-05-21T07:48:40.356Z,3.70
2023-05-21T07:51:12.155Z,3.80
2023-05-21T07:53:38.974Z,3.85
2023-05-21T07:56:08.628Z,3.42
2023-05-21T07:58:35.363Z,4.18
2023-05-21T08:01:10.747Z,3.60
2023-05-21T08:03:37.683Z,3.40
2023-05-21T08:06:04.898Z,3.97
2023-05-21T08:08:32.290Z,3.50
2023-05-21T08:11:02.097Z,3.40
2023-05-21T08:13:37.936Z,3.30
2023-05-21T08:16:05.737Z,3.30
2023-05-21T08:18:37.666Z,3.45
2023-05-21T08:21:04.595Z,3.70
2023-05-21T08:23:31.388Z,3.70
2023-05-21T08:25:58.111Z,3.83
2023-05-21T08:28:25.040Z,3.65
2023-05-21T08:30:51.774Z,3.67
2023-05-21T08:33:21.617Z,4.22
2023-05-21T08:35:48.385Z,3.40
2023-05-21T08:38:18.546Z,3.80
2023-05-21T08:40:46.920Z,3.92
2023-05-21T08:43:22.716Z,3.80
2023-05-21T08:45:56.217Z,3.80
2023-05-21T08:48:24.064Z,3.60
2023-05-21T08:50:54.463Z,3.73
2023-05-21T08:53:28.026Z,3.83
2023-05-21T08:55:56.365Z,3.92
2023-05-21T08:58:26.104Z,3.65
2023-05-21T09:00:54.989Z,3.80
2023-05-21T09:03:22.764Z,3.93
2023-05-21T09:05:53.084Z,3.67
2023-05-21T09:08:27.407Z,3.92
2023-05-21T09:10:54.350Z,4.13
2023-05-21T09:13:29.126Z,3.97
2023-05-21T09:15:57.938Z,3.40
2023-05-21T09:18:24.587Z,3.55
2023-05-21T09:20:51.282Z,3.92
2023-05-21T09:23:18.225Z,4.20
2023-05-21T09:25:47.442Z,4.25
2023-05-21T09:28:16.721Z,4.30
2023-05-21T09:30:57.424Z,4.60
2023-05-21T09:33:28.494Z,3.72
2023-05-21T09:35:58.513Z,3.58
2023-05-21T09:38:29.752Z,3.85
2023-05-21T09:40:56.460Z,4.17
2023-05-21T09:43:26.281Z,4.10
2023-05-21T09:45:55.420Z,3.97
2023-05-21T09:48:39.603Z,3.80
2023-05-21T09:51:14.444Z,3.78
2023-05-21T09:53:58.074Z,4.17
2023-05-21T09:56:33.601Z,3.70
2023-05-21T09:59:02.356Z,3.97
2023-05-21T10:01:31.484Z,4.32
2023-05-21T10:03:59.773Z,4.03
2023-05-21T10:06:31.443Z,3.70
2023-05-21T10:09:03.974Z,3.55
2023-05-21T10:11:33.938Z,4.22
2023-05-21T10:14:16.551Z,4.10
2023-05-21T10:16:54.037Z,3.90
2023-05-21T10:19:22.369Z,3.67
2023-05-21T10:21:52.802Z,3.90
2023-05-21T10:24:20.042Z,3.88
2023-05-21T10:26:48.508Z,3.78
2023-05-21T10:29:17.399Z,4.00
2023-05-21T10:31:55.303Z,4.07
2023-05-21T10:34:23.752Z,4.30
2023-05-21T10:36:52.708Z,4.15
2023-05-21T10:39:22.344Z,3.80
2023-05-21T10:42:08.859Z,3.72
2023-05-21T10:44:55.734Z,3.70
2023-05-21T10:47:54.735Z,3.97
2023-05-21T10:50:30.556Z,3.90
2023-05-21T10:53:16.965Z,3.53
2023-05-21T10:55:50.147Z,4.00
2023-05-21T10:58:41.474Z,3.67
2023-05-21T11:01:08.417Z,4.15
2023-05-21T11:03:41.800Z,3.40
2023-05-21T11:06:10.696Z,3.80
2023-05-21T11:08:47.843Z,3.97
2023-05-21T11:11:43.921Z,3.70
2023-05-21T11:14:38.773Z,3.80
2023-05-21T11:17:36.369Z,3.80
2023-05-21T11:20:14.700Z,3.90
2023-05-21T11:22:41.517Z,4.03
2023-05-21T11:25:19.887Z,4.20
2023-05-21T11:27:47.804Z,3.70
2023-05-21T11:30:19.202Z,4.07
2023-05-21T11:33:14.283Z,3.83
2023-05-21T11:35:59.252Z,4.00
2023-05-21T11:38:34.168Z,3.50
2023-05-21T11:41:07.350Z,3.70
2023-05-21T11:43:37.141Z,4.68
2023-05-21T11:48:46.283Z,4.00
2023-05-21T11:51:13.152Z,3.90
2023-05-21T11:53:43.460Z,3.72
2023-05-21T11:56:11.481Z,3.95
2023-05-21T11:58:42.769Z,3.70
2023-05-21T12:01:21.118Z,3.97
2023-05-21T12:03:53.940Z,4.27
2023-05-21T12:06:27.067Z,4.45
2023-05-21T12:08:54.056Z,4.20
2023-05-21T12:11:28.431Z,3.70
2023-05-21T12:13:55.340Z,3.55
2023-05-21T12:16:22.632Z,3.63
2023-05-21T12:18:49.530Z,3.80
2023-05-21T12:21:17.205Z,4.13
2023-05-21T12:23:43.921Z,3.92
2023-05-21T12:26:11.204Z,4.05
2023-05-21T12:28:38.167Z,4.20
2023-05-21T12:31:15.202Z,4.10
2023-05-21T12:33:46.314Z,3.85
2023-05-21T12:36:29.298Z,3.85
2023-05-21T12:38:56.263Z,3.92
2023-05-21T12:41:23.484Z,3.93
2023-05-21T12:43:55.564Z,4.10
2023-05-21T12:46:32.967Z,4.20
2023-05-21T12:48:59.983Z,4.05
2023-05-21T12:51:39.457Z,3.67
2023-05-21T12:54:12.400Z,4.60
2023-05-21T12:56:45.611Z,4.22
2023-05-21T12:59:15.529Z,4.38
2023-05-21T13:01:52.735Z,4.45
2023-05-21T13:04:20.004Z,4.32
2023-05-21T13:06:46.956Z,4.20
2023-05-21T13:09:21.089Z,3.83
2023-05-21T13:11:57.006Z,4.10
2023-05-21T13:14:31.558Z,4.03
2023-05-21T13:16:58.652Z,4.00
2023-05-21T13:19:30.473Z,4.07
2023-05-21T13:21:57.261Z,3.80
2023-05-21T13:24:23.928Z,4.47
2023-05-21T13:26:50.990Z,4.40
2023-05-21T13:29:17.816Z,3.92
2023-05-21T13:31:44.793Z,4.37
2023-05-21T13:34:12.563Z,4.20
2023-05-21T13:36:40.435Z,4.20
2023-05-21T13:39:08.838Z,4.18
2023-05-21T13:41:53.713Z,4.07
2023-05-21T13:44:20.445Z,4.53
2023-05-21T13:46:50.020Z,4.38
2023-05-21T13:49:16.922Z,4.43
2023-05-21T13:51:43.587Z,4.60
2023-05-21T13:54:10.331Z,4.30
2023-05-21T13:56:42.913Z,4.30
2023-05-21T13:59:09.744Z,4.78
2023-05-21T14:01:39.864Z,5.15
2023-05-21T14:04:07.061Z,4.28
2023-05-21T14:06:34.889Z,3.97
2023-05-21T14:09:04.714Z,4.57
2023-05-21T14:11:31.904Z,4.25
2023-05-21T14:13:59.052Z,4.70
2023-05-21T14:16:28.961Z,4.68
2023-05-21T14:18:56.742Z,4.28
2023-05-21T14:21:26.414Z,4.30
2023-05-21T14:23:53.453Z,4.22
2023-05-21T14:26:20.529Z,4.20
2023-05-21T14:28:47.254Z,4.80
2023-05-21T14:31:14.994Z,4.65
2023-05-21T14:33:43.676Z,4.00
2023-05-21T14:36:10.532Z,4.10
2023-05-21T14:38:37.314Z,4.50
2023-05-21T14:41:04.157Z,4.38
2023-05-21T14:43:31.271Z,4.80
2023-05-21T14:46:00.536Z,4.60
2023-05-21T14:48:27.264Z,4.57
2023-05-21T14:50:56.609Z,4.40
2023-05-21T14:53:26.313Z,4.70
2023-05-21T14:55:54.130Z,4.65
2023-05-21T14:58:21.014Z,4.37
2023-05-21T15:00:47.958Z,4.22
2023-05-21T15:03:14.805Z,4.10
2023-05-21T15:05:44.732Z,4.55
2023-05-21T15:08:15.900Z,3.75
2023-05-21T15:10:43.845Z,4.10
2023-05-21T15:13:10.755Z,4.00
2023-05-21T15:15:37.860Z,4.13
2023-05-21T15:18:04.937Z,4.00
2023-05-21T15:20:31.733Z,4.20
2023-05-21T15:23:15.393Z,4.40
2023-05-21T15:25:43.441Z,4.25
2023-05-21T15:28:14.503Z,4.10
2023-05-21T15:30:41.436Z,4.30
2023-05-21T15:33:08.102Z,4.10
2023-05-21T15:35:36.703Z,3.90
2023-05-21T15:38:04.336Z,3.80
2023-05-21T15:40:32.174Z,3.53
2023-05-21T15:42:58.873Z,3.92
2023-05-21T15:45:25.544Z,4.18
2023-05-21T15:47:53.499Z,3.80
2023-05-21T15:50:23.631Z,3.78
2023-05-21T15:52:53.448Z,3.53
2023-05-21T15:55:23.590Z,4.20
2023-05-21T15:57:50.286Z,3.67
2023-05-21T16:00:17.219Z,3.37
2023-05-21T16:02:44.097Z,3.90
2023-05-21T16:05:11.227Z,3.30
2023-05-21T16:07:38.347Z,3.80
2023-05-21T16:10:07.615Z,3.47
2023-05-21T16:12:34.470Z,3.60
2023-05-21T16:15:01.156Z,3.20
2023-05-21T16:17:30.747Z,3.17
2023-05-21T16:19:57.818Z,3.72
2023-05-21T16:22:24.592Z,3.35
2023-05-21T16:24:51.417Z,3.60
2023-05-21T16:27:18.170Z,3.28
2023-05-21T16:29:49.269Z,3.20
2023-05-21T16:32:27.464Z,3.15
2023-05-21T16:34:54.188Z,3.40
2023-05-21T16:37:21.575Z,3.27
2023-05-21T16:39:48.585Z,3.53
2023-05-21T16:42:15.566Z,3.63
2023-05-21T16:44:42.403Z,3.35
2023-05-21T16:47:09.197Z,3.40
2023-05-21T16:49:35.957Z,3.20
2023-05-21T16:52:05.211Z,3.58
2023-05-21T16:54:37.027Z,3.65
2023-05-21T16:57:03.809Z,3.05
2023-05-21T16:59:30.923Z,3.50
2023-05-21T17:01:57.957Z,2.87
2023-05-21T17:04:27.408Z,3.45
2023-05-21T17:06:54.144Z,3.22
2023-05-21T17:09:21.010Z,3.08
2023-05-21T17:11:47.710Z,3.38
2023-05-21T17:14:23.219Z,3.10
2023-05-21T17:16:59.738Z,3.40
2023-05-21T17:19:29.187Z,3.08
2023-05-21T17:21:58.967Z,3.10
2023-05-21T17:24:26.031Z,3.35
2023-05-21T17:26:53.473Z,3.20
2023-05-21T17:29:20.438Z,2.85
2023-05-21T17:31:48.368Z,3.05
2023-05-21T17:34:15.246Z,3.30
2023-05-21T17:36:45.110Z,2.90
2023-05-21T17:39:11.853Z,2.80
2023-05-21T17:41:38.723Z,2.97
2023-05-21T17:44:05.411Z,2.88
2023-05-21T17:46:32.620Z,2.60
2023-05-21T17:49:03.907Z,2.90
2023-05-21T17:51:30.663Z,2.70
2023-05-21T17:53:57.551Z,2.90
2023-05-21T17:56:26.325Z,3.30
2023-05-21T17:58:53.242Z,3.05
2023-05-21T18:01:20.613Z,2.70
2023-05-21T18:03:47.746Z,2.93
2023-05-21T18:06:22.203Z,3.00
2023-05-21T18:08:48.874Z,2.90
2023-05-21T18:11:15.772Z,2.90
2023-05-21T18:13:42.599Z,2.97
2023-05-21T18:16:09.312Z,3.00
2023-05-21T18:18:36.154Z,3.30
2023-05-21T18:21:08.668Z,3.50
2023-05-21T18:23:35.603Z,3.10
2023-05-21T18:26:04.927Z,3.17
2023-05-21T18:28:35.639Z,3.30
2023-05-21T18:31:05.862Z,3.38
2023-05-21T18:33:32.775Z,2.95
2023-05-21T18:35:59.787Z,3.35
2023-05-21T18:38:26.560Z,3.45
2023-05-21T18:40:53.285Z,3.50
2023-05-21T18:43:21.388Z,3.45
2023-05-21T18:45:50.961Z,3.60
2023-05-21T18:48:17.707Z,3.83
2023-05-21T18:50:44.452Z,3.20
2023-05-21T18:53:11.291Z,3.63
2023-05-21T18:55:40.584Z,3.42
2023-05-21T18:58:10.663Z,3.70
2023-05-21T19:00:40.133Z,3.28
2023-05-21T19:03:08.144Z,3.42
2023-05-21T19:05:34.975Z,3.30
2023-05-21T19:08:01.733Z,3.55
2023-05-21T19:10:28.520Z,3.08
2023-05-21T19:12:55.229Z,3.38
2023-05-21T19:15:21.940Z,3.30
2023-05-21T19:17:50.598Z,3.20
2023-05-21T19:20:26.213Z,3.15
2023-05-21T19:22:56.577Z,2.90
2023-05-21T19:25:23.531Z,2.72
2023-05-21T19:27:52.553Z,3.10
2023-05-21T19:30:19.250Z,3.13
2023-05-21T19:32:49.208Z,2.70
2023-05-21T19:35:21.458Z,2.75
2023-05-21T19:37:48.199Z,2.72
2023-05-21T19:40:15.004Z,2.88
2023-05-21T19:42:42.156Z,2.90
2023-05-21T19:45:09.728Z,2.58
2023-05-21T19:47:36.959Z,2.80
2023-05-21T19:50:06.671Z,2.40
2023-05-21T19:52:33.404Z,2.83
2023-05-21T19:55:03.361Z,2.77
2023-05-21T19:57:31.242Z,2.90
2023-05-21T19:59:58.583Z,2.88
2023-05-21T20:02:26.582Z,3.35
2023-05-21T20:04:55.258Z,3.80
2023-05-21T20:07:25.312Z,3.60
2023-05-21T20:09:57.351Z,3.65
2023-05-21T20:12:24.390Z,3.40
2023-05-21T20:14:53.580Z,3.83
2023-05-21T20:17:23.232Z,3.00
2023-05-21T20:19:52.664Z,3.50
2023-05-21T20:22:19.537Z,3.58
2023-05-21T20:24:46.224Z,3.40
2023-05-21T20:27:16.016Z,3.28
2023-05-21T20:29:42.925Z,3.40
2023-05-21T20:32:09.630Z,3.60
2023-05-21T20:34:37.120Z,3.45
2023-05-21T20:37:07.690Z,3.40
2023-05-21T20:39:48.538Z,3.38
2023-05-21T20:42:22.203Z,3.67
2023-05-21T20:44:49.179Z,3.60
2023-05-21T20:47:15.982Z,3.60
2023-05-21T20:49:42.698Z,3.60
2023-05-21T20:52:09.462Z,3.50
2023-05-21T20:54:36.159Z,3.30
2023-05-21T20:57:02.830Z,3.70
2023-05-21T20:59:29.646Z,3.72
2023-05-21T21:02:09.172Z,3.50
2023-05-21T21:04:38.971Z,3.20
2023-05-21T21:07:06.427Z,3.00
2023-05-21T21:09:35.198Z,3.60
2023-05-21T21:12:11.333Z,3.45
2023-05-21T21:14:49.458Z,3.22
2023-05-21T21:17:16.144Z,3.30
2023-05-21T21:19:42.847Z,3.47
2023-05-21T21:22:09.697Z,3.10
2023-05-21T21:24:38.892Z,3.20
2023-05-21T21:27:06.286Z,3.30
2023-05-21T21:29:32.969Z,3.53
2023-05-21T21:31:59.745Z,3.50
2023-05-21T21:34:28.836Z,3.80
2023-05-21T21:36:55.538Z,3.20
2023-05-21T21:39:25.822Z,3.50
2023-05-21T21:41:52.506Z,3.28
2023-05-21T21:44:19.169Z,3.38
2023-05-21T21:46:45.885Z,3.47
2023-05-21T21:49:16.265Z,3.72
2023-05-21T21:51:44.284Z,3.55
2023-05-21T21:54:12.458Z,3.10
2023-05-21T21:56:42.315Z,3.42
2023-05-21T21:59:11.163Z,3.40
2023-05-21T22:01:42.631Z,3.42
2023-05-21T22:04:10.476Z,3.70
2023-05-21T22:06:37.328Z,3.35
2023-05-21T22:09:04.501Z,3.67
2023-05-21T22:11:31.235Z,3.90
2023-05-21T22:13:58.248Z,3.60
2023-05-21T22:16:31.441Z,3.50
2023-05-21T22:19:00.632Z,3.60
2023-05-21T22:21:27.634Z,3.40
2023-05-21T22:23:57.347Z,4.00
2023-05-21T22:26:24.522Z,4.00
2023-05-21T22:28:51.381Z,3.40
2023-05-21T22:31:18.141Z,3.25
2023-05-21T22:33:45.098Z,4.18
2023-05-21T22:36:11.838Z,3.33
2023-05-21T22:38:42.071Z,3.25
2023-05-21T22:41:08.869Z,3.25
2023-05-21T22:43:35.737Z,3.53
2023-05-21T22:46:02.538Z,3.20
2023-05-21T22:48:29.365Z,3.50
2023-05-21T22:50:56.919Z,3.50
2023-05-21T22:53:26.715Z,3.30
2023-05-21T22:55:53.463Z,3.35
2023-05-21T22:58:20.342Z,3.95
2023-05-21T23:00:52.749Z,3.53
2023-05-21T23:03:22.488Z,3.55
2023-05-21T23:05:51.550Z,3.45
2023-05-21T23:08:19.569Z,3.42
2023-05-21T23:10:46.400Z,3.25
2023-05-21T23:13:13.584Z,4.30
2023-05-21T23:15:40.361Z,3.30
2023-05-21T23:18:10.192Z,3.60
2023-05-21T23:20:37.183Z,3.47
2023-05-21T23:23:04.442Z,3.63
2023-05-21T23:25:33.187Z,3.40
2023-05-21T23:27:59.918Z,4.03
2023-05-21T23:30:29.307Z,3.22
2023-05-21T23:32:56.245Z,3.35
2023-05-21T23:35:24.153Z,3.42
2023-05-21T23:37:50.875Z,3.43
2023-05-21T23:40:20.703Z,3.85
2023-05-21T23:42:50.447Z,3.45
2023-05-21T23:45:17.315Z,3.60
2023-05-21T23:47:44.098Z,3.75
2023-05-21T23:50:13.209Z,3.47
2023-05-21T23:52:39.878Z,3.63
2023-05-21T23:55:12.945Z,3.47
2023-05-21T23:57:39.687Z,3.35
